Time;durP1;ratioP1;P1;durP2;ratioP2;P2;SDS_P1;SDS_P2;PMS_P1;PMS_P2;Temp;Humidity;BMP_temperature;BMP_pressure;BME280_temperature;BME280_humidity;BME280_pressure;Samples;Min_cycle;Max_cycle;Signal;HPM_P1;HPM_P2
2022/07/13 00:00:35;;;;;;;2.92;2.08;;;;;;;;;;4998941;28;20129;-75
2022/07/13 00:03:01;;;;;;;2.95;2.20;;;;;;;;;;4999497;28;20074;-75
2022/07/13 00:05:27;;;;;;;3.65;1.90;;;;;;;;;;4998525;28;20133;-75
2022/07/13 00:07:54;;;;;;;3.25;2.00;;;;;;;;;;4998456;28;20070;-75
2022/07/13 00:10:20;;;;;;;1.80;1.48;;;;;;;;;;4998738;28;20089;-75
2022/07/13 00:12:46;;;;;;;2.90;1.95;;;;;;;;;;4998388;28;20042;-75
2022/07/13 00:15:12;;;;;;;1.98;1.75;;;;;;;;;;4998049;28;20133;-75
2022/07/13 00:17:38;;;;;;;4.30;1.85;;;;;;;;;;4997226;28;20501;-75
2022/07/13 00:20:05;;;;;;;3.97;1.90;;;;;;;;;;4998149;28;20030;-75
2022/07/13 00:22:31;;;;;;;2.40;2.20;;;;;;;;;;4998352;28;20042;-75
2022/07/13 00:24:57;;;;;;;2.60;2.13;;;;;;;;;;4998371;28;20042;-75
2022/07/13 00:27:23;;;;;;;4.30;2.00;;;;;;;;;;4998113;28;20093;-75
2022/07/13 00:29:50;;;;;;;1.80;1.70;;;;;;;;;;4997886;28;20038;-75
2022/07/13 00:32:16;;;;;;;2.67;1.67;;;;;;;;;;4998619;28;20050;-75
2022/07/13 00:34:42;;;;;;;5.22;2.55;;;;;;;;;;4998277;28;20078;-75
2022/07/13 00:37:08;;;;;;;3.08;2.28;;;;;;;;;;4996792;28;20046;-75
2022/07/13 00:39:34;;;;;;;2.53;2.13;;;;;;;;;;4996070;28;20081;-75
2022/07/13 00:42:00;;;;;;;2.38;2.15;;;;;;;;;;4997484;28;20062;-75
2022/07/13 00:44:26;;;;;;;2.35;2.10;;;;;;;;;;4997937;28;20050;-74
2022/07/13 00:46:56;;;;;;;4.60;1.80;;;;;;;;;;4996721;28;20042;-75
2022/07/13 00:49:22;;;;;;;4.93;1.88;;;;;;;;;;4997639;28;20505;-75
2022/07/13 00:51:49;;;;;;;3.78;1.75;;;;;;;;;;4997241;28;20042;-75
2022/07/13 00:54:16;;;;;;;1.70;1.60;;;;;;;;;;4997783;28;20057;-75
2022/07/13 00:56:42;;;;;;;2.95;1.70;;;;;;;;;;4997254;28;20493;-75
2022/07/13 00:59:08;;;;;;;3.47;1.90;;;;;;;;;;4997505;28;20049;-75
2022/07/13 01:01:34;;;;;;;3.22;1.63;;;;;;;;;;4997505;28;20038;-75
2022/07/13 01:04:01;;;;;;;1.95;1.70;;;;;;;;;;4997676;28;20050;-75
2022/07/13 01:06:27;;;;;;;3.13;1.90;;;;;;;;;;4997432;28;20070;-75
2022/07/13 01:08:53;;;;;;;4.22;1.85;;;;;;;;;;4996992;28;20053;-75
2022/07/13 01:11:19;;;;;;;2.40;1.73;;;;;;;;;;4997058;28;20052;-75
2022/07/13 01:13:45;;;;;;;2.55;2.30;;;;;;;;;;4997569;28;20501;-75
2022/07/13 01:16:12;;;;;;;2.75;2.22;;;;;;;;;;4998098;28;20058;-75
2022/07/13 01:18:38;;;;;;;3.25;2.35;;;;;;;;;;4997702;28;20042;-75
2022/07/13 01:21:07;;;;;;;3.78;2.22;;;;;;;;;;4997467;28;20133;-75
2022/07/13 01:23:34;;;;;;;2.00;1.80;;;;;;;;;;4997902;28;20088;-75
2022/07/13 01:26:01;;;;;;;2.10;2.00;;;;;;;;;;4997319;28;20088;-75
2022/07/13 01:28:27;;;;;;;4.50;2.47;;;;;;;;;;4997195;28;20042;-75
2022/07/13 01:30:53;;;;;;;2.17;1.98;;;;;;;;;;4997281;28;20133;-75
2022/07/13 01:33:19;;;;;;;2.30;2.10;;;;;;;;;;4997724;28;20034;-75
2022/07/13 01:35:46;;;;;;;2.42;2.22;;;;;;;;;;4997199;28;20053;-75
2022/07/13 01:38:12;;;;;;;2.30;2.10;;;;;;;;;;4997155;28;20062;-75
2022/07/13 01:40:41;;;;;;;3.10;1.80;;;;;;;;;;4997073;28;20093;-75
2022/07/13 01:43:07;;;;;;;2.70;2.00;;;;;;;;;;4997431;28;20065;-75
2022/07/13 01:45:33;;;;;;;1.95;1.75;;;;;;;;;;4996966;28;20049;-75
2022/07/13 01:47:59;;;;;;;2.20;2.00;;;;;;;;;;4996605;28;20116;-75
2022/07/13 01:50:27;;;;;;;2.17;1.98;;;;;;;;;;4996574;28;20100;-75
2022/07/13 01:52:53;;;;;;;2.63;2.20;;;;;;;;;;4997414;28;20469;-75
2022/07/13 01:55:19;;;;;;;1.90;1.75;;;;;;;;;;4996827;28;20061;-75
2022/07/13 01:57:46;;;;;;;2.38;2.17;;;;;;;;;;4996602;28;20045;-75
2022/07/13 02:00:19;;;;;;;2.20;2.05;;;;;;;;;;4996068;28;20103;-75
2022/07/13 02:02:46;;;;;;;3.55;2.08;;;;;;;;;;4997234;28;20065;-75
2022/07/13 02:05:12;;;;;;;3.80;1.95;;;;;;;;;;4996727;28;20085;-75
2022/07/13 02:07:39;;;;;;;5.65;2.28;;;;;;;;;;4996596;28;20049;-75
2022/07/13 02:10:06;;;;;;;4.07;2.47;;;;;;;;;;4996149;28;20054;-75
2022/07/13 02:12:32;;;;;;;2.30;2.10;;;;;;;;;;4996477;28;20045;-75
2022/07/13 02:14:58;;;;;;;2.50;2.30;;;;;;;;;;4996312;28;20106;-75
2022/07/13 02:17:24;;;;;;;4.47;2.10;;;;;;;;;;4996192;28;20080;-75
2022/07/13 02:19:51;;;;;;;4.07;2.30;;;;;;;;;;4995729;28;20133;-75
2022/07/13 02:22:17;;;;;;;3.22;2.10;;;;;;;;;;4995724;28;20058;-75
2022/07/13 02:24:43;;;;;;;2.72;1.92;;;;;;;;;;4996077;28;20073;-75
2022/07/13 02:27:09;;;;;;;2.42;2.00;;;;;;;;;;4995956;28;20038;-75
2022/07/13 02:29:35;;;;;;;1.83;1.73;;;;;;;;;;4995845;28;20057;-75
2022/07/13 02:32:01;;;;;;;3.72;2.17;;;;;;;;;;4995845;28;20038;-75
2022/07/13 02:34:28;;;;;;;3.60;2.20;;;;;;;;;;4996078;28;20061;-75
2022/07/13 02:36:55;;;;;;;2.83;2.00;;;;;;;;;;4994708;28;20034;-75
2022/07/13 02:39:21;;;;;;;2.25;2.05;;;;;;;;;;4994246;28;20074;-75
2022/07/13 02:41:49;;;;;;;2.63;2.08;;;;;;;;;;4995107;28;20046;-74
2022/07/13 02:44:15;;;;;;;3.63;2.00;;;;;;;;;;4994335;28;20088;-74
2022/07/13 02:46:41;;;;;;;2.92;2.30;;;;;;;;;;4995851;28;20121;-75
2022/07/13 02:49:07;;;;;;;13.25;2.60;;;;;;;;;;4995342;28;20054;-75
2022/07/13 02:51:34;;;;;;;3.55;2.20;;;;;;;;;;4995259;28;20490;-75
2022/07/13 02:54:01;;;;;;;3.92;2.38;;;;;;;;;;4996030;28;20057;-75
2022/07/13 02:56:27;;;;;;;3.15;2.28;;;;;;;;;;4995476;28;20192;-75
2022/07/13 02:58:53;;;;;;;2.42;2.22;;;;;;;;;;4995224;28;20050;-75
2022/07/13 03:01:19;;;;;;;2.72;2.33;;;;;;;;;;4995375;28;20034;-75
2022/07/13 03:03:45;;;;;;;2.65;2.05;;;;;;;;;;4995505;28;20404;-75
2022/07/13 03:06:11;;;;;;;2.95;2.25;;;;;;;;;;4995480;28;20038;-75
2022/07/13 03:08:37;;;;;;;2.60;2.28;;;;;;;;;;4994859;28;20382;-75
2022/07/13 03:11:04;;;;;;;2.30;2.10;;;;;;;;;;4995053;28;20038;-75
2022/07/13 03:13:30;;;;;;;3.42;2.75;;;;;;;;;;4995230;28;20046;-75
2022/07/13 03:15:56;;;;;;;2.50;2.28;;;;;;;;;;4995534;28;20564;-74
2022/07/13 03:18:22;;;;;;;2.63;2.30;;;;;;;;;;4995121;28;20042;-75
2022/07/13 03:20:48;;;;;;;4.95;2.15;;;;;;;;;;4995159;28;20054;-75
2022/07/13 03:23:14;;;;;;;3.70;2.42;;;;;;;;;;4995426;28;20049;-75
2022/07/13 03:25:40;;;;;;;2.17;2.08;;;;;;;;;;4995359;28;20066;-75
2022/07/13 03:28:07;;;;;;;4.38;2.42;;;;;;;;;;4994828;28;20042;-75
2022/07/13 03:30:33;;;;;;;3.03;2.17;;;;;;;;;;4995046;28;20046;-75
2022/07/13 03:32:59;;;;;;;2.67;2.47;;;;;;;;;;4995745;28;20074;-75
2022/07/13 03:35:25;;;;;;;2.47;1.92;;;;;;;;;;4995347;28;20042;-75
2022/07/13 03:37:51;;;;;;;2.55;2.35;;;;;;;;;;4995866;28;20042;-75
2022/07/13 03:40:17;;;;;;;3.80;2.35;;;;;;;;;;4995179;28;20077;-75
2022/07/13 03:42:43;;;;;;;2.30;2.20;;;;;;;;;;4995412;28;20148;-75
2022/07/13 03:45:10;;;;;;;2.83;2.45;;;;;;;;;;4995164;28;20046;-75
2022/07/13 03:47:36;;;;;;;2.60;2.40;;;;;;;;;;4994861;28;20034;-75
2022/07/13 03:50:03;;;;;;;2.55;2.10;;;;;;;;;;4995082;28;20046;-74
2022/07/13 03:52:29;;;;;;;2.40;2.17;;;;;;;;;;4995101;28;20034;-75
2022/07/13 03:54:55;;;;;;;2.88;2.40;;;;;;;;;;4995366;28;20057;-75
2022/07/13 03:57:21;;;;;;;3.03;2.30;;;;;;;;;;4995131;28;20045;-75
2022/07/13 03:59:47;;;;;;;2.67;2.38;;;;;;;;;;4994655;28;20128;-75
2022/07/13 04:02:13;;;;;;;2.88;2.25;;;;;;;;;;4995075;28;20053;-75
2022/07/13 04:04:39;;;;;;;2.90;2.30;;;;;;;;;;4995312;28;20129;-74
2022/07/13 04:07:05;;;;;;;3.08;2.25;;;;;;;;;;4995049;28;20042;-75
2022/07/13 04:09:31;;;;;;;4.00;2.30;;;;;;;;;;4994924;28;20050;-74
2022/07/13 04:11:58;;;;;;;3.85;2.47;;;;;;;;;;4995003;28;20077;-75
2022/07/13 04:14:24;;;;;;;3.75;2.67;;;;;;;;;;4994846;28;20132;-75
2022/07/13 04:16:50;;;;;;;3.65;2.38;;;;;;;;;;4995151;28;20532;-75
2022/07/13 04:19:16;;;;;;;2.88;2.50;;;;;;;;;;4994781;28;20049;-75
2022/07/13 04:21:42;;;;;;;5.30;2.63;;;;;;;;;;4995371;28;20038;-74
2022/07/13 04:24:08;;;;;;;6.18;2.60;;;;;;;;;;4998615;28;20046;-74
2022/07/13 04:26:34;;;;;;;8.75;2.72;;;;;;;;;;4998201;28;20046;-74
2022/07/13 04:29:00;;;;;;;3.88;2.58;;;;;;;;;;4997619;28;20048;-74
2022/07/13 04:31:26;;;;;;;6.45;2.80;;;;;;;;;;4998335;28;20552;-74
2022/07/13 04:33:53;;;;;;;3.45;2.35;;;;;;;;;;4998497;28;20054;-74
2022/07/13 04:36:19;;;;;;;3.45;2.38;;;;;;;;;;4998023;28;20042;-74
2022/07/13 04:38:45;;;;;;;2.63;2.33;;;;;;;;;;4998155;28;20050;-74
2022/07/13 04:41:11;;;;;;;3.38;2.50;;;;;;;;;;4997619;28;20065;-74
2022/07/13 04:43:37;;;;;;;4.05;3.38;;;;;;;;;;4998235;28;20073;-74
2022/07/13 04:46:03;;;;;;;3.65;2.53;;;;;;;;;;4997845;28;20489;-74
2022/07/13 04:48:29;;;;;;;7.43;2.80;;;;;;;;;;4997373;28;20493;-75
2022/07/13 04:50:56;;;;;;;2.65;2.45;;;;;;;;;;4997410;28;20078;-74
2022/07/13 04:53:22;;;;;;;6.07;2.50;;;;;;;;;;4998259;28;20168;-74
2022/07/13 04:55:48;;;;;;;2.70;2.30;;;;;;;;;;4997358;28;20129;-75
2022/07/13 04:58:14;;;;;;;8.40;2.60;;;;;;;;;;4997434;28;20046;-75
2022/07/13 05:00:40;;;;;;;6.25;3.03;;;;;;;;;;4997538;28;20038;-75
2022/07/13 05:03:07;;;;;;;6.85;2.58;;;;;;;;;;4997869;28;20378;-74
2022/07/13 05:05:33;;;;;;;2.83;2.50;;;;;;;;;;4997181;28;20077;-74
2022/07/13 05:08:00;;;;;;;3.60;2.65;;;;;;;;;;4997336;28;20061;-74
2022/07/13 05:10:26;;;;;;;5.05;2.55;;;;;;;;;;4997437;28;20046;-75
2022/07/13 05:12:53;;;;;;;3.17;2.60;;;;;;;;;;4997383;28;20034;-75
2022/07/13 05:15:19;;;;;;;4.57;2.80;;;;;;;;;;4997249;28;20046;-74
2022/07/13 05:17:45;;;;;;;3.63;2.80;;;;;;;;;;4998018;28;20489;-74
2022/07/13 05:20:12;;;;;;;3.83;2.92;;;;;;;;;;4997482;28;20478;-74
2022/07/13 05:22:38;;;;;;;4.60;2.80;;;;;;;;;;4997604;28;20477;-74
2022/07/13 05:25:04;;;;;;;6.40;3.13;;;;;;;;;;4997560;28;20080;-74
2022/07/13 05:27:30;;;;;;;3.85;2.70;;;;;;;;;;4997113;28;20050;-74
2022/07/13 05:29:56;;;;;;;4.60;3.03;;;;;;;;;;4996806;28;20134;-73
2022/07/13 05:32:23;;;;;;;5.40;2.70;;;;;;;;;;4996268;28;20046;-74
2022/07/13 05:34:49;;;;;;;5.43;2.33;;;;;;;;;;5005264;28;20042;-74
2022/07/13 05:37:16;;;;;;;7.32;2.97;;;;;;;;;;5001790;28;20038;-74
2022/07/13 05:39:43;;;;;;;7.25;3.25;;;;;;;;;;5006531;28;20092;-74
2022/07/13 05:42:10;;;;;;;8.20;3.60;;;;;;;;;;5002342;28;20057;-74
2022/07/13 05:44:36;;;;;;;9.23;3.33;;;;;;;;;;5008584;28;20049;-74
2022/07/13 05:47:02;;;;;;;4.32;2.65;;;;;;;;;;5007180;28;20488;-74
2022/07/13 05:49:28;;;;;;;7.50;2.83;;;;;;;;;;5004990;28;20077;-74
2022/07/13 05:51:54;;;;;;;2.38;2.15;;;;;;;;;;5005912;28;20050;-74
2022/07/13 05:54:21;;;;;;;3.65;2.20;;;;;;;;;;5006667;28;20042;-74
2022/07/13 05:56:47;;;;;;;8.93;2.63;;;;;;;;;;5008063;28;20046;-74
2022/07/13 05:59:13;;;;;;;2.50;2.30;;;;;;;;;;5015904;28;20045;-74
2022/07/13 06:01:39;;;;;;;5.47;2.10;;;;;;;;;;5016294;28;20040;-75
2022/07/13 06:04:05;;;;;;;5.82;2.22;;;;;;;;;;5016299;28;20041;-75
2022/07/13 06:06:32;;;;;;;4.25;1.92;;;;;;;;;;5015887;28;20038;-76
2022/07/13 06:08:58;;;;;;;4.22;2.38;;;;;;;;;;5015653;28;20057;-75
2022/07/13 06:11:24;;;;;;;3.70;2.05;;;;;;;;;;4993955;28;20070;-75
2022/07/13 06:13:50;;;;;;;5.22;2.08;;;;;;;;;;4984686;28;20047;-75
2022/07/13 06:16:16;;;;;;;7.78;2.17;;;;;;;;;;5013077;28;20053;-75
2022/07/13 06:18:42;;;;;;;4.35;2.30;;;;;;;;;;5010766;28;20050;-75
2022/07/13 06:21:08;;;;;;;3.95;2.13;;;;;;;;;;4996081;28;20039;-75
2022/07/13 06:23:34;;;;;;;3.22;2.13;;;;;;;;;;4996797;28;20038;-75
2022/07/13 06:26:01;;;;;;;3.88;1.98;;;;;;;;;;4996060;28;20100;-75
2022/07/13 06:28:27;;;;;;;7.70;1.90;;;;;;;;;;4994984;28;20042;-75
2022/07/13 06:30:53;;;;;;;2.95;1.80;;;;;;;;;;4994902;28;20076;-77
2022/07/13 06:33:20;;;;;;;3.55;1.98;;;;;;;;;;4995106;28;20116;-76
2022/07/13 06:35:47;;;;;;;6.50;2.13;;;;;;;;;;4994741;28;20557;-77
2022/07/13 06:38:13;;;;;;;2.95;1.65;;;;;;;;;;4995277;28;20138;-76
2022/07/13 06:40:39;;;;;;;5.05;1.90;;;;;;;;;;4977721;28;20039;-77
2022/07/13 06:43:05;;;;;;;2.97;1.88;;;;;;;;;;4995985;28;20049;-77
2022/07/13 06:45:31;;;;;;;3.95;2.20;;;;;;;;;;4994758;28;20122;-77
2022/07/13 06:47:57;;;;;;;4.47;1.50;;;;;;;;;;4989617;28;20079;-77
2022/07/13 06:50:23;;;;;;;3.63;1.83;;;;;;;;;;4994582;28;20042;-79
2022/07/13 06:52:50;;;;;;;4.40;1.92;;;;;;;;;;4995182;28;20049;-82
2022/07/13 06:55:16;;;;;;;4.22;1.70;;;;;;;;;;4995470;28;20117;-77
2022/07/13 06:57:42;;;;;;;12.30;2.28;;;;;;;;;;4994864;28;20074;-77
2022/07/13 07:00:09;;;;;;;6.35;2.00;;;;;;;;;;4994646;28;20050;-77
2022/07/13 07:02:38;;;;;;;2.47;1.90;;;;;;;;;;4996115;28;20066;-77
2022/07/13 07:05:09;;;;;;;4.70;1.85;;;;;;;;;;4994712;28;20117;-77
2022/07/13 07:07:36;;;;;;;5.93;1.83;;;;;;;;;;4994370;28;20042;-77
2022/07/13 07:10:02;;;;;;;5.95;1.60;;;;;;;;;;4978582;28;20382;-76
2022/07/13 07:12:28;;;;;;;2.70;1.80;;;;;;;;;;4985897;28;20089;-76
2022/07/13 07:14:54;;;;;;;4.53;1.80;;;;;;;;;;4981531;28;20054;-77
2022/07/13 07:17:21;;;;;;;141.02;105.88;;;;;;;;;;4994976;28;20046;-77
2022/07/13 07:19:47;;;;;;;17.05;14.13;;;;;;;;;;4994911;28;20508;-76
2022/07/13 07:22:13;;;;;;;12.13;8.80;;;;;;;;;;4995203;28;20046;-77
2022/07/13 07:24:40;;;;;;;10.77;5.55;;;;;;;;;;4995259;28;20505;-76
2022/07/13 07:27:07;;;;;;;4.25;2.35;;;;;;;;;;4994897;28;20489;-76
2022/07/13 07:29:36;;;;;;;7.88;2.22;;;;;;;;;;4994528;28;20077;-76
2022/07/13 07:32:02;;;;;;;2.63;2.13;;;;;;;;;;4995150;28;20485;-77
2022/07/13 07:34:29;;;;;;;7.43;2.20;;;;;;;;;;4994738;28;20048;-76
2022/07/13 07:36:55;;;;;;;8.43;2.20;;;;;;;;;;4994902;28;20043;-76
2022/07/13 07:39:22;;;;;;;7.97;1.92;;;;;;;;;;4995061;28;20124;-76
2022/07/13 07:41:49;;;;;;;3.13;1.80;;;;;;;;;;4994893;28;20038;-76
2022/07/13 07:44:15;;;;;;;3.40;1.65;;;;;;;;;;4994193;28;20505;-76
2022/07/13 07:46:41;;;;;;;2.35;1.52;;;;;;;;;;4994608;28;20448;-77
2022/07/13 07:49:07;;;;;;;1.50;1.40;;;;;;;;;;4976946;28;20420;-77
2022/07/13 07:51:33;;;;;;;2.22;1.92;;;;;;;;;;4994342;28;20053;-76
2022/07/13 07:54:01;;;;;;;5.10;1.85;;;;;;;;;;4994286;28;20046;-77
2022/07/13 07:56:28;;;;;;;7.22;1.77;;;;;;;;;;4992934;28;20034;-77
2022/07/13 07:58:54;;;;;;;5.88;1.75;;;;;;;;;;4997101;28;20050;-77
2022/07/13 08:01:20;;;;;;;3.45;1.90;;;;;;;;;;4997068;28;20493;-76
2022/07/13 08:03:46;;;;;;;2.10;1.90;;;;;;;;;;5004637;28;20042;-76
2022/07/13 08:06:31;;;;;;;6.63;1.33;;;;;;;;;;4998368;28;20042;-76
2022/07/13 08:08:57;;;;;;;2.63;1.48;;;;;;;;;;4997851;28;20046;-76
2022/07/13 08:11:24;;;;;;;3.92;1.55;;;;;;;;;;4997156;28;20047;-77
2022/07/13 08:13:51;;;;;;;1.95;1.42;;;;;;;;;;4998837;28;20061;-76
2022/07/13 08:16:18;;;;;;;2.50;1.55;;;;;;;;;;4998776;28;20054;-76
2022/07/13 08:18:44;;;;;;;2.75;1.58;;;;;;;;;;4998369;28;20501;-77
2022/07/13 08:21:11;;;;;;;3.70;1.30;;;;;;;;;;4998876;28;20069;-77
2022/07/13 08:23:53;;;;;;;1.88;1.27;;;;;;;;;;4998790;28;20081;-76
2022/07/13 08:26:23;;;;;;;2.58;1.30;;;;;;;;;;4998460;28;20039;-77
2022/07/13 08:28:50;;;;;;;4.20;1.48;;;;;;;;;;4996882;28;20042;-75
2022/07/13 08:31:16;;;;;;;4.90;1.42;;;;;;;;;;4997495;28;20035;-76
2022/07/13 08:39:13;;;;;;;3.33;1.40;;;;;;;;;;4997633;28;20049;-76
2022/07/13 08:41:40;;;;;;;3.20;1.40;;;;;;;;;;4998765;28;20034;-76
2022/07/13 08:44:06;;;;;;;5.95;1.55;;;;;;;;;;4997888;28;20049;-76
2022/07/13 08:46:32;;;;;;;6.00;2.00;;;;;;;;;;4998412;28;20050;-75
2022/07/13 08:48:58;;;;;;;1.95;1.17;;;;;;;;;;4996876;28;20065;-75
2022/07/13 08:51:26;;;;;;;2.45;1.65;;;;;;;;;;4997338;28;20066;-76
2022/07/13 08:53:52;;;;;;;2.58;1.30;;;;;;;;;;4997642;28;20042;-77
2022/07/13 08:56:19;;;;;;;2.88;1.40;;;;;;;;;;4997674;28;20045;-77
2022/07/13 08:58:45;;;;;;;5.78;1.40;;;;;;;;;;4997413;28;20156;-76
2022/07/13 09:01:11;;;;;;;2.85;1.10;;;;;;;;;;4997460;28;20065;-76
2022/07/13 09:03:38;;;;;;;2.80;1.40;;;;;;;;;;4998216;28;20137;-77
2022/07/13 09:06:04;;;;;;;3.58;1.35;;;;;;;;;;4997778;28;20061;-76
2022/07/13 09:08:31;;;;;;;1.15;1.05;;;;;;;;;;4979178;28;20046;-76
2022/07/13 09:10:59;;;;;;;1.42;1.30;;;;;;;;;;4997722;28;20141;-76
2022/07/13 09:13:46;;;;;;;3.80;1.25;;;;;;;;;;4997674;28;20054;-75
2022/07/13 09:16:20;;;;;;;4.70;1.35;;;;;;;;;;4993808;28;20453;-76
2022/07/13 09:18:47;;;;;;;2.00;1.17;;;;;;;;;;4981295;28;20113;-75
2022/07/13 09:21:13;;;;;;;1.42;1.25;;;;;;;;;;4981054;28;20279;-76
2022/07/13 09:23:40;;;;;;;1.80;1.20;;;;;;;;;;4987192;28;20039;-76
2022/07/13 09:26:06;;;;;;;2.10;0.93;;;;;;;;;;4995618;28;20042;-76
2022/07/13 09:28:46;;;;;;;1.83;1.10;;;;;;;;;;4995634;28;20042;-76
2022/07/13 09:31:12;;;;;;;1.63;1.52;;;;;;;;;;4996808;28;20489;-76
2022/07/13 09:33:39;;;;;;;1.80;1.50;;;;;;;;;;4995905;28;20046;-77
2022/07/13 09:36:09;;;;;;;4.13;1.15;;;;;;;;;;4995575;28;20050;-78
2022/07/13 09:38:37;;;;;;;1.92;1.30;;;;;;;;;;4995070;28;20069;-77
2022/07/13 09:41:19;;;;;;;1.15;0.93;;;;;;;;;;4995644;28;20093;-77
2022/07/13 09:46:35;;;;;;;;;;;;;;;;;;4988520;28;20082;-79
2022/07/13 09:49:02;;;;;;;3.15;1.30;;;;;;;;;;4977955;28;19917;-79
2022/07/13 09:51:28;;;;;;;2.65;1.40;;;;;;;;;;4978799;28;20046;-78
2022/07/13 09:53:56;;;;;;;0.93;0.90;;;;;;;;;;4995739;28;20042;-78
2022/07/13 09:56:24;;;;;;;3.58;1.20;;;;;;;;;;4995931;28;20137;-78
2022/07/13 09:58:52;;;;;;;3.95;1.50;;;;;;;;;;4993214;28;20386;-78
2022/07/13 10:01:18;;;;;;;2.45;1.20;;;;;;;;;;4996086;28;20101;-76
2022/07/13 10:03:44;;;;;;;3.47;1.05;;;;;;;;;;4996572;28;20038;-76
2022/07/13 10:06:10;;;;;;;4.68;1.35;;;;;;;;;;4995541;28;20073;-77
2022/07/13 10:08:39;;;;;;;1.95;1.40;;;;;;;;;;4996034;28;20057;-77
2022/07/13 10:11:05;;;;;;;2.40;1.20;;;;;;;;;;4995702;28;20096;-77
2022/07/13 10:13:32;;;;;;;1.65;1.20;;;;;;;;;;4995041;28;20049;-78
2022/07/13 10:15:58;;;;;;;2.58;1.40;;;;;;;;;;4977252;28;20054;-77
2022/07/13 10:18:32;;;;;;;4.40;1.52;;;;;;;;;;4996364;28;20497;-78
2022/07/13 10:21:05;;;;;;;4.20;1.38;;;;;;;;;;4997209;28;20094;-78
2022/07/13 10:23:33;;;;;;;3.63;1.17;;;;;;;;;;4991694;28;20543;-77
2022/07/13 10:26:00;;;;;;;4.88;1.60;;;;;;;;;;4990183;28;20354;-77
2022/07/13 10:28:26;;;;;;;4.07;1.60;;;;;;;;;;4994673;28;20130;-78
2022/07/13 10:30:53;;;;;;;4.72;1.30;;;;;;;;;;4995293;28;20034;-79
2022/07/13 10:33:20;;;;;;;6.97;1.60;;;;;;;;;;4995250;28;20141;-78
2022/07/13 10:35:47;;;;;;;1.80;1.33;;;;;;;;;;4991121;28;20062;-77
2022/07/13 10:38:17;;;;;;;5.25;1.50;;;;;;;;;;4995096;28;20035;-78
2022/07/13 10:40:43;;;;;;;1.60;1.50;;;;;;;;;;4991114;28;20046;-75
2022/07/13 10:43:10;;;;;;;4.10;1.80;;;;;;;;;;4993662;28;20085;-77
2022/07/13 10:45:40;;;;;;;2.53;1.70;;;;;;;;;;4994639;28;20543;-78
2022/07/13 10:48:34;;;;;;;4.15;1.92;;;;;;;;;;4995589;28;20528;-78
2022/07/13 10:51:01;;;;;;;5.20;1.90;;;;;;;;;;4982528;28;20039;-77
2022/07/13 10:53:40;;;;;;;4.00;2.15;;;;;;;;;;4987808;28;20054;-77
2022/07/13 10:56:17;;;;;;;5.38;1.83;;;;;;;;;;4978254;28;20042;-77
2022/07/13 10:58:44;;;;;;;8.18;2.10;;;;;;;;;;4995356;28;20100;-76
2022/07/13 11:01:35;;;;;;;2.92;1.70;;;;;;;;;;4993708;28;20579;-76
2022/07/13 11:04:01;;;;;;;2.58;2.20;;;;;;;;;;4985671;28;20041;-75
2022/07/13 11:06:29;;;;;;;4.28;2.38;;;;;;;;;;4994510;28;20050;-77
2022/07/13 11:09:11;;;;;;;3.42;2.50;;;;;;;;;;5001479;28;20050;-77
2022/07/13 11:11:44;;;;;;;4.22;2.70;;;;;;;;;;4994304;28;20034;-77
2022/07/13 11:14:29;;;;;;;8.18;3.78;;;;;;;;;;4994247;28;20049;-75
2022/07/13 11:16:55;;;;;;;6.47;2.90;;;;;;;;;;4993035;28;20153;-75
2022/07/13 11:19:39;;;;;;;8.85;4.88;;;;;;;;;;4990572;28;20045;-77
2022/07/13 11:22:10;;;;;;;5.45;3.97;;;;;;;;;;4994812;28;20037;-77
2022/07/13 11:27:29;;;;;;;6.35;5.00;;;;;;;;;;4992781;28;20104;-77
2022/07/13 11:29:58;;;;;;;4.47;3.88;;;;;;;;;;4993946;28;20065;-77
2022/07/13 11:32:26;;;;;;;4.43;3.60;;;;;;;;;;5000361;28;20527;-76
2022/07/13 11:34:52;;;;;;;6.18;4.40;;;;;;;;;;5001419;28;20501;-77
2022/07/13 11:37:25;;;;;;;5.32;3.95;;;;;;;;;;5001113;28;20062;-77
2022/07/13 11:39:52;;;;;;;5.72;5.03;;;;;;;;;;5001356;28;20056;-77
2022/07/13 11:42:27;;;;;;;5.45;4.95;;;;;;;;;;5001190;28;20085;-76
2022/07/13 11:44:53;;;;;;;4.65;4.07;;;;;;;;;;5000665;28;20041;-76
2022/07/13 11:47:19;;;;;;;4.88;4.25;;;;;;;;;;5001172;28;20046;-76
2022/07/13 11:49:49;;;;;;;5.82;4.68;;;;;;;;;;5000093;28;20050;-76
2022/07/13 11:52:20;;;;;;;5.13;4.47;;;;;;;;;;5000654;28;20209;-76
2022/07/13 11:54:59;;;;;;;10.55;5.05;;;;;;;;;;5000684;28;20140;-76
2022/07/13 11:57:26;;;;;;;12.80;4.25;;;;;;;;;;5000173;28;20062;-76
2022/07/13 11:59:52;;;;;;;5.13;4.63;;;;;;;;;;4999281;28;20077;-77
2022/07/13 12:02:18;;;;;;;6.38;4.20;;;;;;;;;;4996525;28;20045;-78
2022/07/13 12:04:47;;;;;;;5.75;3.88;;;;;;;;;;4992327;28;20034;-79
2022/07/13 12:07:14;;;;;;;4.70;4.18;;;;;;;;;;5005580;28;20038;-77
2022/07/13 12:09:51;;;;;;;4.30;3.92;;;;;;;;;;4990464;28;20041;-78
2022/07/13 12:12:21;;;;;;;6.45;4.05;;;;;;;;;;5009260;28;20037;-78
2022/07/13 12:14:51;;;;;;;6.25;4.30;;;;;;;;;;5004861;28;20066;-83
2022/07/13 12:17:18;;;;;;;4.72;4.32;;;;;;;;;;5010494;28;20042;-76
2022/07/13 12:19:44;;;;;;;5.07;4.57;;;;;;;;;;5005612;28;20326;-76
2022/07/13 12:22:10;;;;;;;4.93;4.50;;;;;;;;;;5010551;28;20080;-79
2022/07/13 12:24:37;;;;;;;6.43;4.93;;;;;;;;;;4976270;28;20046;-76
2022/07/13 12:27:03;;;;;;;5.55;5.05;;;;;;;;;;5006848;28;20034;-77
2022/07/13 12:29:31;;;;;;;5.90;5.38;;;;;;;;;;5007574;28;20050;-75
2022/07/13 12:31:58;;;;;;;9.00;5.10;;;;;;;;;;5007827;28;20030;-79
2022/07/13 12:34:25;;;;;;;7.95;5.28;;;;;;;;;;5004528;28;20073;-79
2022/07/13 12:36:51;;;;;;;6.10;5.60;;;;;;;;;;5009492;28;20044;-77
2022/07/13 12:39:34;;;;;;;7.53;5.57;;;;;;;;;;5017148;28;20093;-77
2022/07/13 12:42:01;;;;;;;9.85;5.75;;;;;;;;;;5009172;28;20041;-77
2022/07/13 12:44:29;;;;;;;6.38;5.38;;;;;;;;;;5000301;28;20052;-77
2022/07/13 12:46:58;;;;;;;6.15;5.57;;;;;;;;;;5015593;28;20083;-77
2022/07/13 12:49:28;;;;;;;7.32;4.80;;;;;;;;;;5017502;28;20489;-77
2022/07/13 12:51:55;;;;;;;12.90;5.35;;;;;;;;;;5017291;28;20045;-76
2022/07/13 12:54:40;;;;;;;4.40;4.00;;;;;;;;;;5016766;28;20038;-77
2022/07/13 12:57:15;;;;;;;4.35;3.25;;;;;;;;;;5017309;28;20099;-77
2022/07/13 12:59:41;;;;;;;6.90;3.60;;;;;;;;;;5016967;28;20034;-76
2022/07/13 13:02:08;;;;;;;5.63;3.53;;;;;;;;;;5016892;28;20072;-77
2022/07/13 13:04:34;;;;;;;4.03;3.60;;;;;;;;;;5017161;28;20044;-77
2022/07/13 13:07:00;;;;;;;5.53;3.83;;;;;;;;;;5016810;28;20041;-77
2022/07/13 13:09:26;;;;;;;7.60;3.90;;;;;;;;;;5016886;28;20052;-76
2022/07/13 13:11:52;;;;;;;4.20;3.00;;;;;;;;;;5016598;28;20038;-77
2022/07/13 13:14:18;;;;;;;6.50;3.42;;;;;;;;;;5016726;28;20054;-77
2022/07/13 13:16:45;;;;;;;7.13;3.85;;;;;;;;;;5016992;28;20125;-77
2022/07/13 13:19:11;;;;;;;6.65;3.63;;;;;;;;;;5016928;28;20132;-77
2022/07/13 13:21:38;;;;;;;5.05;3.10;;;;;;;;;;5016881;28;20072;-77
2022/07/13 13:24:09;;;;;;;4.68;3.45;;;;;;;;;;5016722;28;20041;-77
2022/07/13 13:26:36;;;;;;;5.53;3.50;;;;;;;;;;5017019;28;20041;-77
2022/07/13 13:31:48;;;;;;;14.45;5.25;;;;;;;;;;5016160;28;20472;-77
2022/07/13 13:34:14;;;;;;;8.02;3.90;;;;;;;;;;5016951;28;20050;-77
2022/07/13 13:36:40;;;;;;;7.20;3.40;;;;;;;;;;5016268;28;20064;-77
2022/07/13 13:39:07;;;;;;;8.75;3.95;;;;;;;;;;5016686;28;20046;-77
2022/07/13 13:41:33;;;;;;;9.95;4.18;;;;;;;;;;5016479;28;20038;-77
2022/07/13 13:43:59;;;;;;;9.38;4.43;;;;;;;;;;5016273;28;20392;-77
2022/07/13 13:46:25;;;;;;;8.82;4.40;;;;;;;;;;5016093;28;20041;-77
2022/07/13 13:48:51;;;;;;;9.20;4.50;;;;;;;;;;5016211;28;20045;-77
2022/07/13 13:51:17;;;;;;;8.07;4.57;;;;;;;;;;5016000;28;20096;-77
2022/07/13 13:53:44;;;;;;;6.63;4.43;;;;;;;;;;5016205;28;20121;-77
2022/07/13 13:56:10;;;;;;;7.95;4.10;;;;;;;;;;5015577;28;20103;-77
2022/07/13 13:58:36;;;;;;;5.35;4.32;;;;;;;;;;5016081;28;20100;-77
2022/07/13 14:01:02;;;;;;;4.20;3.85;;;;;;;;;;5016352;28;20041;-77
2022/07/13 14:03:28;;;;;;;8.73;4.38;;;;;;;;;;5015702;28;20041;-77
2022/07/13 14:05:54;;;;;;;5.25;4.00;;;;;;;;;;5016183;28;20037;-77
2022/07/13 14:08:20;;;;;;;9.02;4.60;;;;;;;;;;5015556;28;20046;-77
2022/07/13 14:10:47;;;;;;;7.60;4.15;;;;;;;;;;5016166;28;20061;-76
2022/07/13 14:13:13;;;;;;;9.35;4.35;;;;;;;;;;5015932;28;20049;-77
2022/07/13 14:15:39;;;;;;;8.45;4.18;;;;;;;;;;5015357;28;20115;-77
2022/07/13 14:18:05;;;;;;;12.55;4.10;;;;;;;;;;5015478;28;20041;-77
2022/07/13 14:20:31;;;;;;;7.85;3.80;;;;;;;;;;5015685;28;20477;-77
2022/07/13 14:22:58;;;;;;;7.43;4.40;;;;;;;;;;5015953;28;20038;-77
2022/07/13 14:25:24;;;;;;;5.72;3.83;;;;;;;;;;5015624;28;20040;-77
2022/07/13 14:27:50;;;;;;;5.45;3.58;;;;;;;;;;5015358;28;20088;-77
2022/07/13 14:30:17;;;;;;;7.90;3.92;;;;;;;;;;5015001;28;20054;-77
2022/07/13 14:32:43;;;;;;;5.10;3.00;;;;;;;;;;5015235;28;20033;-77
2022/07/13 14:35:11;;;;;;;11.15;3.50;;;;;;;;;;5015394;28;20046;-77
2022/07/13 14:37:37;;;;;;;6.10;3.30;;;;;;;;;;5016190;28;20076;-77
2022/07/13 14:40:04;;;;;;;7.50;3.13;;;;;;;;;;5015160;28;20104;-77
2022/07/13 14:42:31;;;;;;;4.90;3.15;;;;;;;;;;5015275;28;20034;-77
2022/07/13 14:44:57;;;;;;;7.15;3.50;;;;;;;;;;5015306;28;20057;-76
2022/07/13 14:47:23;;;;;;;5.70;3.13;;;;;;;;;;5014978;28;20366;-76
2022/07/13 14:49:49;;;;;;;6.78;3.10;;;;;;;;;;5015141;28;20049;-77
2022/07/13 14:52:15;;;;;;;4.95;2.75;;;;;;;;;;5015245;28;20061;-77
2022/07/13 14:54:41;;;;;;;5.50;2.70;;;;;;;;;;5015442;28;20050;-77
2022/07/13 14:57:08;;;;;;;3.47;2.42;;;;;;;;;;5015438;28;20044;-77